createdAt,value
2018-07-13T00:01:45.274Z,15.83
2018-07-13T00:04:13.136Z,15.82
2018-07-13T00:06:40.354Z,15.79
2018-07-13T00:09:09.837Z,15.72
2018-07-13T00:11:37.474Z,15.62
2018-07-13T00:14:21.115Z,15.60
2018-07-13T00:19:38.605Z,15.56
2018-07-13T00:22:06.047Z,15.53
2018-07-13T00:24:33.306Z,15.50
2018-07-13T00:27:00.545Z,15.48
2018-07-13T00:29:27.778Z,15.44
2018-07-13T00:31:54.997Z,15.42
2018-07-13T00:34:22.258Z,15.41
2018-07-13T00:36:49.484Z,15.43
2018-07-13T00:39:16.732Z,15.48
2018-07-13T00:41:43.982Z,15.51
2018-07-13T00:44:11.218Z,15.52
2018-07-13T00:46:38.431Z,15.53
2018-07-13T00:49:05.709Z,15.49
2018-07-13T00:51:32.938Z,15.49
2018-07-13T00:54:00.220Z,15.53
2018-07-13T00:56:27.434Z,15.52
2018-07-13T00:58:54.678Z,15.54
2018-07-13T01:01:21.917Z,15.54
2018-07-13T01:03:49.195Z,15.53
2018-07-13T01:06:16.479Z,15.52
2018-07-13T01:08:43.729Z,15.52
2018-07-13T01:11:11.032Z,15.48
2018-07-13T01:13:38.306Z,15.41
2018-07-13T01:16:05.569Z,15.41
2018-07-13T01:18:32.828Z,15.40
2018-07-13T01:21:00.116Z,15.41
2018-07-13T01:23:27.339Z,15.41
2018-07-13T01:25:54.618Z,15.45
2018-07-13T01:28:21.846Z,15.45
2018-07-13T01:30:49.085Z,15.39
2018-07-13T01:33:16.314Z,15.36
2018-07-13T01:35:43.552Z,15.38
2018-07-13T01:38:10.825Z,15.35
2018-07-13T01:40:38.090Z,15.35
2018-07-13T01:43:05.383Z,15.37
2018-07-13T01:45:32.646Z,15.37
2018-07-13T01:47:59.897Z,15.37
2018-07-13T01:50:27.177Z,15.31
2018-07-13T01:52:54.444Z,15.32
2018-07-13T01:55:21.732Z,15.32
2018-07-13T01:57:48.978Z,15.29
2018-07-13T02:00:16.283Z,15.25
2018-07-13T02:02:43.555Z,15.21
2018-07-13T02:05:10.860Z,15.18
2018-07-13T02:07:38.096Z,15.11
2018-07-13T02:10:05.424Z,15.06
2018-07-13T02:12:32.698Z,15.05
2018-07-13T02:14:59.951Z,15.01
2018-07-13T02:17:27.154Z,15.00
2018-07-13T02:19:54.422Z,15.00
2018-07-13T02:22:21.702Z,14.95
2018-07-13T02:24:48.985Z,14.95
2018-07-13T02:27:16.674Z,14.96
2018-07-13T02:29:43.933Z,14.98
2018-07-13T02:32:11.174Z,14.95
2018-07-13T02:34:38.439Z,15.03
2018-07-13T02:37:06.094Z,15.06
2018-07-13T02:39:33.584Z,15.05
2018-07-13T02:42:00.826Z,15.06
2018-07-13T02:44:28.082Z,15.04
2018-07-13T02:46:55.340Z,15.04
2018-07-13T02:49:22.597Z,15.04
2018-07-13T02:51:49.879Z,15.01
2018-07-13T02:54:17.155Z,15.03
2018-07-13T02:56:44.504Z,15.03
2018-07-13T02:59:11.745Z,15.03
2018-07-13T03:01:39.067Z,15.02
2018-07-13T03:04:06.398Z,15.03
2018-07-13T03:06:33.734Z,15.04
2018-07-13T03:09:01.215Z,15.04
2018-07-13T03:11:29.391Z,15.07
2018-07-13T03:13:56.715Z,15.14
2018-07-13T03:16:24.638Z,15.19
2018-07-13T03:18:53.874Z,15.21
2018-07-13T03:21:22.749Z,15.21
2018-07-13T03:23:51.410Z,15.26
2018-07-13T03:26:18.832Z,15.29
2018-07-13T03:28:46.162Z,15.33
2018-07-13T03:31:13.505Z,15.37
2018-07-13T03:33:40.824Z,15.41
2018-07-13T03:36:08.166Z,15.50
2018-07-13T03:38:35.489Z,15.55
2018-07-13T03:41:02.885Z,15.60
2018-07-13T03:43:30.208Z,15.64
2018-07-13T03:45:57.523Z,15.68
2018-07-13T03:48:24.891Z,15.74
2018-07-13T03:50:52.249Z,15.81
2018-07-13T03:53:19.583Z,15.90
2018-07-13T03:55:46.922Z,15.96
2018-07-13T03:58:14.252Z,16.03
2018-07-13T04:00:41.582Z,16.10
2018-07-13T04:03:11.064Z,16.18
2018-07-13T04:05:38.392Z,16.26
2018-07-13T04:08:05.778Z,16.36
2018-07-13T04:10:33.195Z,16.42
2018-07-13T04:13:00.570Z,16.47
2018-07-13T04:15:28.627Z,16.54
2018-07-13T04:17:56.035Z,16.60
2018-07-13T04:20:23.641Z,16.62
2018-07-13T04:22:51.086Z,16.68
2018-07-13T04:25:18.449Z,16.68
2018-07-13T04:27:46.576Z,16.66
2018-07-13T04:30:14.049Z,16.64
2018-07-13T04:32:41.434Z,16.58
2018-07-13T04:35:08.836Z,16.59
2018-07-13T04:37:36.247Z,16.58
2018-07-13T04:40:03.846Z,16.55
2018-07-13T04:42:31.206Z,16.56
2018-07-13T04:44:58.535Z,16.54
2018-07-13T04:47:25.969Z,16.58
2018-07-13T04:49:53.291Z,16.62
2018-07-13T04:52:21.405Z,16.69
2018-07-13T04:54:49.156Z,16.79
2018-07-13T04:57:16.469Z,16.78
2018-07-13T04:59:44.036Z,16.80
2018-07-13T05:02:11.427Z,16.86
2018-07-13T05:04:38.713Z,16.89
2018-07-13T05:07:06.135Z,16.94
2018-07-13T05:09:33.523Z,16.97
2018-07-13T05:12:01.725Z,16.96
2018-07-13T05:14:29.073Z,16.98
2018-07-13T05:16:56.426Z,16.97
2018-07-13T05:19:23.802Z,16.98
2018-07-13T05:21:51.159Z,17.00
2018-07-13T05:24:19.486Z,17.04
2018-07-13T05:26:46.871Z,17.12
2018-07-13T05:29:14.887Z,17.20
2018-07-13T05:31:42.343Z,17.25
2018-07-13T05:34:10.026Z,17.58
2018-07-13T05:36:37.454Z,18.12
2018-07-13T05:39:08.416Z,18.38
2018-07-13T05:41:35.835Z,18.60
2018-07-13T05:44:03.352Z,18.80
2018-07-13T05:46:30.803Z,18.96
2018-07-13T05:48:58.272Z,19.09
2018-07-13T05:51:25.694Z,19.20
2018-07-13T05:53:53.059Z,19.41
2018-07-13T05:56:20.527Z,19.80
2018-07-13T05:58:48.050Z,20.21
2018-07-13T06:01:15.437Z,20.61
2018-07-13T06:03:43.513Z,21.09
2018-07-13T06:06:11.033Z,21.46
2018-07-13T06:08:38.411Z,21.70
2018-07-13T06:11:05.786Z,22.10
2018-07-13T06:13:33.174Z,22.34
2018-07-13T06:16:00.517Z,22.35
2018-07-13T06:18:27.878Z,22.00
2018-07-13T06:20:55.165Z,21.67
2018-07-13T06:23:23.095Z,21.51
2018-07-13T06:25:50.379Z,21.54
2018-07-13T06:28:17.740Z,21.61
2018-07-13T06:30:45.032Z,21.91
2018-07-13T06:33:12.395Z,22.16
2018-07-13T06:35:39.759Z,22.64
2018-07-13T06:38:07.155Z,22.90
2018-07-13T06:40:34.545Z,22.92
2018-07-13T06:43:01.934Z,22.68
2018-07-13T06:45:29.282Z,22.49
2018-07-13T06:47:56.620Z,22.91
2018-07-13T06:50:23.990Z,23.48
2018-07-13T06:52:51.357Z,23.38
2018-07-13T06:55:18.688Z,23.85
2018-07-13T06:57:57.298Z,23.90
2018-07-13T07:01:01.082Z,24.27
2018-07-13T07:03:29.422Z,24.55
2018-07-13T07:06:14.782Z,24.37
2018-07-13T07:08:45.566Z,23.46
2018-07-13T07:11:12.967Z,23.45
2018-07-13T07:13:43.405Z,22.82
2018-07-13T07:16:11.254Z,22.77
2018-07-13T07:18:38.614Z,22.79
2018-07-13T07:21:06.185Z,22.62
2018-07-13T07:23:34.203Z,22.57
2018-07-13T07:26:02.761Z,22.51
2018-07-13T07:28:30.115Z,22.60
2018-07-13T07:30:58.059Z,22.86
2018-07-13T07:33:25.452Z,23.53
2018-07-13T07:35:52.932Z,24.23
2018-07-13T07:38:20.342Z,24.93
2018-07-13T07:40:48.312Z,24.70
2018-07-13T07:43:15.943Z,24.36
2018-07-13T07:45:43.387Z,23.84
2018-07-13T07:48:11.022Z,23.69
2018-07-13T07:50:38.432Z,23.31
2018-07-13T07:53:05.851Z,23.38
2018-07-13T07:55:33.298Z,23.27
2018-07-13T07:58:00.675Z,23.21
2018-07-13T08:00:28.002Z,23.33
2018-07-13T08:02:55.390Z,23.10
2018-07-13T08:05:22.888Z,22.96
2018-07-13T08:07:50.198Z,23.15
2018-07-13T08:10:17.590Z,23.32
2018-07-13T08:12:44.919Z,23.73
2018-07-13T08:15:12.267Z,24.80
2018-07-13T08:17:39.640Z,25.59
2018-07-13T08:20:07.080Z,26.56
2018-07-13T08:22:44.123Z,27.45
2018-07-13T08:25:12.921Z,27.09
2018-07-13T08:27:50.886Z,27.47
2018-07-13T08:30:27.232Z,28.04
2018-07-13T08:32:54.583Z,28.28
2018-07-13T08:35:22.132Z,28.36
2018-07-13T08:37:49.574Z,28.05
2018-07-13T08:40:16.996Z,28.58
2018-07-13T08:42:44.953Z,27.87
2018-07-13T08:45:14.288Z,27.54
2018-07-13T08:47:42.185Z,27.68
2018-07-13T08:50:09.675Z,27.77
2018-07-13T08:52:37.049Z,27.42
2018-07-13T08:55:15.282Z,27.52
2018-07-13T08:57:43.708Z,27.39
2018-07-13T09:00:11.182Z,27.47
2018-07-13T09:02:39.773Z,27.39
2018-07-13T09:05:07.354Z,27.04
2018-07-13T09:07:35.688Z,27.18
2018-07-13T09:10:03.353Z,27.80
2018-07-13T09:12:30.925Z,28.13
2018-07-13T09:14:58.357Z,28.49
2018-07-13T09:17:25.746Z,28.87
2018-07-13T09:19:53.254Z,29.40
2018-07-13T09:22:21.216Z,29.69
2018-07-13T09:24:48.626Z,29.80
2018-07-13T09:27:16.209Z,29.76
2018-07-13T09:29:43.668Z,30.55
2018-07-13T09:32:11.063Z,30.83
2018-07-13T09:34:38.451Z,31.50
2018-07-13T09:37:05.850Z,31.84
2018-07-13T09:39:33.312Z,31.91
2018-07-13T09:42:00.647Z,31.07
2018-07-13T09:44:27.957Z,30.56
2018-07-13T09:46:55.597Z,30.69
2018-07-13T09:49:23.356Z,31.07
2018-07-13T09:51:51.116Z,30.96
2018-07-13T09:54:18.436Z,31.29
2018-07-13T09:56:46.149Z,31.37
2018-07-13T09:59:13.461Z,31.16
2018-07-13T10:01:40.832Z,31.17
2018-07-13T10:04:08.317Z,31.41
2018-07-13T10:06:35.650Z,31.47
2018-07-13T10:09:03.448Z,31.42
2018-07-13T10:11:30.864Z,31.71
2018-07-13T10:13:58.214Z,31.55
2018-07-13T10:16:25.632Z,31.57
2018-07-13T10:18:53.912Z,31.59
2018-07-13T10:21:21.375Z,31.21
2018-07-13T10:23:48.806Z,30.75
2018-07-13T10:26:21.014Z,30.43
2018-07-13T10:28:48.427Z,31.00
2018-07-13T10:31:16.044Z,31.13
2018-07-13T10:33:44.133Z,31.20
2018-07-13T10:36:13.833Z,31.10
2018-07-13T10:38:41.176Z,31.66
2018-07-13T10:41:08.648Z,31.30
2018-07-13T10:43:36.102Z,31.71
2018-07-13T10:46:03.523Z,31.14
2018-07-13T10:48:30.926Z,30.69
2018-07-13T10:50:58.299Z,31.07
2018-07-13T10:53:25.822Z,31.65
2018-07-13T10:55:53.152Z,31.74
2018-07-13T10:58:20.495Z,31.86
2018-07-13T11:00:47.854Z,31.76
2018-07-13T11:03:15.192Z,31.66
2018-07-13T11:05:42.579Z,31.99
2018-07-13T11:08:10.550Z,31.68
2018-07-13T11:10:37.834Z,31.82
2018-07-13T11:13:05.161Z,31.76
2018-07-13T11:15:32.533Z,31.81
2018-07-13T11:17:59.866Z,30.72
2018-07-13T11:20:27.259Z,29.80
2018-07-13T11:22:54.599Z,29.63
2018-07-13T11:25:21.960Z,29.63
2018-07-13T11:27:49.310Z,30.11
2018-07-13T11:30:16.650Z,30.47
2018-07-13T11:32:44.123Z,31.14
2018-07-13T11:35:12.130Z,31.39
2018-07-13T11:37:39.429Z,31.54
2018-07-13T11:40:06.781Z,31.58
2018-07-13T11:42:34.669Z,31.64
2018-07-13T11:45:02.075Z,31.23
2018-07-13T11:47:29.430Z,31.04
2018-07-13T11:49:56.761Z,31.46
2018-07-13T11:52:24.151Z,32.14
2018-07-13T11:54:51.451Z,31.16
2018-07-13T11:57:18.825Z,31.07
2018-07-13T11:59:46.200Z,30.77
2018-07-13T12:02:13.633Z,30.64
2018-07-13T12:04:40.951Z,30.52
2018-07-13T12:07:08.246Z,31.09
2018-07-13T12:09:35.607Z,31.63
2018-07-13T12:12:02.953Z,31.98
2018-07-13T12:14:30.327Z,31.30
2018-07-13T12:16:57.698Z,30.18
2018-07-13T12:19:25.062Z,30.06
2018-07-13T12:21:52.415Z,30.64
2018-07-13T12:24:19.780Z,31.24
2018-07-13T12:26:47.128Z,32.04
2018-07-13T12:29:14.435Z,31.89
2018-07-13T12:31:42.377Z,32.04
2018-07-13T12:34:10.489Z,32.49
2018-07-13T12:36:37.833Z,31.86
2018-07-13T12:39:05.972Z,31.32
2018-07-13T12:41:33.554Z,31.14
2018-07-13T12:44:00.906Z,31.29
2018-07-13T12:46:28.414Z,31.88
2018-07-13T12:48:55.780Z,32.82
2018-07-13T12:51:23.761Z,32.97
2018-07-13T12:53:51.193Z,32.10
2018-07-13T12:56:18.535Z,32.23
2018-07-13T12:58:45.906Z,32.69
2018-07-13T13:01:13.252Z,32.97
2018-07-13T13:03:40.604Z,31.96
2018-07-13T13:06:07.909Z,30.67
2018-07-13T13:08:35.302Z,30.80
2018-07-13T13:11:02.713Z,31.32
2018-07-13T13:13:30.282Z,30.96
2018-07-13T13:15:57.634Z,30.46
2018-07-13T13:18:24.978Z,30.26
2018-07-13T13:20:52.339Z,30.65
2018-07-13T13:23:19.741Z,30.94
2018-07-13T13:25:48.063Z,31.24
2018-07-13T13:28:15.437Z,31.31
2018-07-13T13:30:42.822Z,31.61
2018-07-13T13:33:12.235Z,32.17
2018-07-13T13:35:39.644Z,31.88
2018-07-13T13:38:07.261Z,31.67
2018-07-13T13:40:34.584Z,30.84
2018-07-13T13:43:01.909Z,30.11
2018-07-13T13:45:29.258Z,29.77
2018-07-13T13:47:56.573Z,29.20
2018-07-13T13:50:23.936Z,28.80
2018-07-13T13:52:51.298Z,28.86
2018-07-13T13:55:18.533Z,29.07
2018-07-13T13:57:45.923Z,29.94
2018-07-13T14:00:13.191Z,30.64
2018-07-13T14:02:40.660Z,31.01
2018-07-13T14:05:08.089Z,31.12
2018-07-13T14:07:35.435Z,30.81
2018-07-13T14:10:02.894Z,30.59
2018-07-13T14:12:31.057Z,30.73
2018-07-13T14:14:58.482Z,30.78
2018-07-13T14:17:25.754Z,30.97
2018-07-13T14:19:53.173Z,29.85
2018-07-13T14:22:21.475Z,29.15
2018-07-13T14:24:48.982Z,29.00
2018-07-13T14:27:16.326Z,29.65
2018-07-13T14:29:43.632Z,29.05
2018-07-13T14:32:11.027Z,28.51
2018-07-13T14:34:38.373Z,28.18
2018-07-13T14:37:05.735Z,28.29
2018-07-13T14:39:34.122Z,28.23
2018-07-13T14:42:01.423Z,28.54
2018-07-13T14:44:28.811Z,29.06
2018-07-13T14:46:56.223Z,29.20
2018-07-13T14:49:23.575Z,29.28
2018-07-13T14:51:50.935Z,29.52
2018-07-13T14:54:18.857Z,29.81
2018-07-13T14:56:46.341Z,29.49
2018-07-13T14:59:14.207Z,29.74
2018-07-13T15:01:42.940Z,29.54
2018-07-13T15:04:10.349Z,29.45
2018-07-13T15:06:37.873Z,29.27
2018-07-13T15:09:05.370Z,29.18
2018-07-13T15:11:33.682Z,29.25
2018-07-13T15:14:01.056Z,29.13
2018-07-13T15:16:28.407Z,28.53
2018-07-13T15:18:55.713Z,28.51
2018-07-13T15:21:23.050Z,28.66
2018-07-13T15:23:50.416Z,28.94
2018-07-13T15:26:17.789Z,28.66
2018-07-13T15:28:45.172Z,28.76
2018-07-13T15:31:12.461Z,28.97
2018-07-13T15:33:40.079Z,28.94
2018-07-13T15:36:07.439Z,28.93
2018-07-13T15:38:41.446Z,28.93
2018-07-13T15:41:08.824Z,29.09
2018-07-13T15:43:36.239Z,29.16
2018-07-13T15:46:03.562Z,29.12
2018-07-13T15:48:30.959Z,29.10
2018-07-13T15:50:58.356Z,28.91
2018-07-13T15:53:25.719Z,28.90
2018-07-13T15:55:57.998Z,28.80
2018-07-13T15:58:28.547Z,28.98
2018-07-13T16:00:56.182Z,28.79
2018-07-13T16:03:23.726Z,28.58
2018-07-13T16:05:51.119Z,28.55
2018-07-13T16:08:19.272Z,28.29
2018-07-13T16:10:46.804Z,28.36
2018-07-13T16:13:14.093Z,28.35
2018-07-13T16:15:41.630Z,28.21
2018-07-13T16:18:08.996Z,28.20
2018-07-13T16:20:36.394Z,28.24
2018-07-13T16:23:03.780Z,28.31
2018-07-13T16:25:32.443Z,28.27
2018-07-13T16:27:59.780Z,28.10
2018-07-13T16:30:27.141Z,27.83
2018-07-13T16:32:54.476Z,27.75
2018-07-13T16:35:21.989Z,27.77
2018-07-13T16:37:49.312Z,27.73
2018-07-13T16:40:16.741Z,27.54
2018-07-13T16:42:44.095Z,27.63
2018-07-13T16:45:12.082Z,27.57
2018-07-13T16:47:39.342Z,27.50
2018-07-13T16:50:06.757Z,27.51
2018-07-13T16:52:34.361Z,27.51
2018-07-13T16:55:02.516Z,27.42
2018-07-13T16:57:29.817Z,27.42
2018-07-13T16:59:57.149Z,27.19
2018-07-13T17:02:24.491Z,27.07
2018-07-13T17:04:51.836Z,26.96
2018-07-13T17:07:19.331Z,26.90
2018-07-13T17:09:46.694Z,26.69
2018-07-13T17:12:14.082Z,26.79
2018-07-13T17:14:41.411Z,26.60
2018-07-13T17:17:08.755Z,26.53
2018-07-13T17:19:36.824Z,26.53
2018-07-13T17:22:04.250Z,26.39
2018-07-13T17:24:31.590Z,26.40
2018-07-13T17:26:58.929Z,26.45
2018-07-13T17:29:26.284Z,26.28
2018-07-13T17:31:53.694Z,26.25
2018-07-13T17:34:21.002Z,26.20
2018-07-13T17:36:48.392Z,26.11
2018-07-13T17:39:25.463Z,26.06
2018-07-13T17:41:52.931Z,25.94
2018-07-13T17:44:21.927Z,25.84
2018-07-13T17:46:49.353Z,25.85
2018-07-13T17:49:16.877Z,25.70
2018-07-13T17:51:45.560Z,25.67
2018-07-13T17:54:13.209Z,25.66
2018-07-13T17:56:40.744Z,25.53
2018-07-13T17:59:08.184Z,25.48
2018-07-13T18:01:35.867Z,25.37
2018-07-13T18:04:03.950Z,25.36
2018-07-13T18:06:31.502Z,25.27
2018-07-13T18:08:59.100Z,25.21
2018-07-13T18:11:26.776Z,25.09
2018-07-13T18:13:54.374Z,25.02
2018-07-13T18:16:23.137Z,24.91
2018-07-13T18:18:50.588Z,24.89
2018-07-13T18:21:18.449Z,24.75
2018-07-13T18:23:45.870Z,24.70
2018-07-13T18:26:13.379Z,24.67
2018-07-13T18:28:41.066Z,24.59
2018-07-13T18:31:08.519Z,24.56
2018-07-13T18:33:35.932Z,24.46
2018-07-13T18:36:03.573Z,24.43
2018-07-13T18:38:31.087Z,24.38
2018-07-13T18:40:58.556Z,24.31
2018-07-13T18:43:26.029Z,24.23
2018-07-13T18:45:53.523Z,24.15
2018-07-13T18:48:21.065Z,24.06
2018-07-13T18:50:48.533Z,24.00
2018-07-13T18:53:15.911Z,23.92
2018-07-13T18:55:44.378Z,23.84
2018-07-13T18:58:11.807Z,23.68
2018-07-13T19:00:39.326Z,23.66
2018-07-13T19:03:07.386Z,23.61
2018-07-13T19:05:34.891Z,23.50
2018-07-13T19:08:04.560Z,23.40
2018-07-13T19:10:32.029Z,23.33
2018-07-13T19:12:59.578Z,23.19
2018-07-13T19:15:27.245Z,23.14
2018-07-13T19:17:55.753Z,23.02
2018-07-13T19:20:23.288Z,22.94
2018-07-13T19:22:50.917Z,22.87
2018-07-13T19:25:19.219Z,22.81
2018-07-13T19:27:47.680Z,22.70
2018-07-13T19:30:15.745Z,22.59
2018-07-13T19:32:44.437Z,22.55
2018-07-13T19:35:11.814Z,22.40
2018-07-13T19:37:39.427Z,22.32
2018-07-13T19:40:06.902Z,22.27
2018-07-13T19:42:34.382Z,22.16
2018-07-13T19:45:02.345Z,22.06
2018-07-13T19:47:29.779Z,21.98
2018-07-13T19:49:57.090Z,21.88
2018-07-13T19:52:24.486Z,21.82
2018-07-13T19:54:51.925Z,21.77
2018-07-13T19:57:19.449Z,21.65
2018-07-13T19:59:46.723Z,21.55
2018-07-13T20:02:14.127Z,21.44
2018-07-13T20:04:41.431Z,21.36
2018-07-13T20:07:08.793Z,21.25
2018-07-13T20:09:36.186Z,21.16
2018-07-13T20:12:04.288Z,21.08
2018-07-13T20:14:32.560Z,20.97
2018-07-13T20:16:59.935Z,20.91
2018-07-13T20:19:27.313Z,20.86
2018-07-13T20:21:55.494Z,20.82
2018-07-13T20:24:22.826Z,20.74
2018-07-13T20:26:50.211Z,20.74
2018-07-13T20:29:17.576Z,20.71
2018-07-13T20:31:44.954Z,20.70
2018-07-13T20:34:12.368Z,20.65
2018-07-13T20:36:41.089Z,20.62
2018-07-13T20:39:08.468Z,20.53
2018-07-13T20:41:36.274Z,20.46
2018-07-13T20:44:03.583Z,20.31
2018-07-13T20:46:30.852Z,20.28
2018-07-13T20:48:58.100Z,20.23
2018-07-13T20:51:25.510Z,20.23
2018-07-13T20:53:52.765Z,20.21
2018-07-13T20:56:21.093Z,20.21
2018-07-13T20:58:48.513Z,20.21
2018-07-13T21:01:15.770Z,20.19
2018-07-13T21:03:43.038Z,20.11
2018-07-13T21:06:10.301Z,20.02
2018-07-13T21:08:37.631Z,19.89
2018-07-13T21:11:04.887Z,19.73
2018-07-13T21:13:32.153Z,19.56
2018-07-13T21:15:59.370Z,19.38
2018-07-13T21:18:26.665Z,19.30
2018-07-13T21:20:53.969Z,19.13
2018-07-13T21:23:21.157Z,19.04
2018-07-13T21:25:48.394Z,18.91
2018-07-13T21:28:15.661Z,18.61
2018-07-13T21:30:42.931Z,18.50
2018-07-13T21:33:10.216Z,18.41
2018-07-13T21:35:37.479Z,18.40
2018-07-13T21:38:05.069Z,18.18
2018-07-13T21:40:32.554Z,18.04
2018-07-13T21:42:59.841Z,17.89
2018-07-13T21:45:27.082Z,17.76
2018-07-13T21:47:54.362Z,17.78
2018-07-13T21:50:21.609Z,17.72
2018-07-13T21:52:48.865Z,17.65
2018-07-13T21:55:16.133Z,17.56
2018-07-13T21:57:43.384Z,17.53
2018-07-13T22:00:10.681Z,17.55
2018-07-13T22:02:37.950Z,17.55
2018-07-13T22:05:05.393Z,17.62
2018-07-13T22:07:32.685Z,17.57
2018-07-13T22:09:59.989Z,17.59
2018-07-13T22:12:27.298Z,17.57
2018-07-13T22:14:54.537Z,17.47
2018-07-13T22:17:21.789Z,17.32
2018-07-13T22:19:49.035Z,17.25
2018-07-13T22:22:16.319Z,17.20
2018-07-13T22:24:43.583Z,17.18
2018-07-13T22:27:10.846Z,17.21
2018-07-13T22:29:38.292Z,17.21
2018-07-13T22:32:05.889Z,17.21
2018-07-13T22:34:33.181Z,17.17
2018-07-13T22:37:00.406Z,17.05
2018-07-13T22:39:27.662Z,16.94
2018-07-13T22:41:54.899Z,16.94
2018-07-13T22:44:22.210Z,16.93
2018-07-13T22:46:49.450Z,16.95
2018-07-13T22:49:16.678Z,16.90
2018-07-13T22:51:44.115Z,16.81
2018-07-13T22:54:11.392Z,16.78
2018-07-13T22:56:38.677Z,16.78
2018-07-13T22:59:05.988Z,16.71
2018-07-13T23:01:33.247Z,16.71
2018-07-13T23:04:00.531Z,16.70
2018-07-13T23:06:27.764Z,16.66
2018-07-13T23:08:55.030Z,16.62
2018-07-13T23:11:22.295Z,16.53
2018-07-13T23:13:49.588Z,16.48
2018-07-13T23:16:16.822Z,16.33
2018-07-13T23:18:44.083Z,16.20
2018-07-13T23:21:11.341Z,16.12
2018-07-13T23:23:38.575Z,16.07
2018-07-13T23:26:05.859Z,15.96
2018-07-13T23:28:33.127Z,15.92
2018-07-13T23:31:00.352Z,15.88
2018-07-13T23:33:27.607Z,15.86
2018-07-13T23:35:54.843Z,15.87
2018-07-13T23:38:22.079Z,15.84
2018-07-13T23:40:49.340Z,15.78
2018-07-13T23:43:16.642Z,15.72
2018-07-13T23:45:43.918Z,15.64
2018-07-13T23:48:11.191Z,15.62
2018-07-13T23:50:38.447Z,15.68
2018-07-13T23:53:05.690Z,15.67
2018-07-13T23:55:32.927Z,15.62
2018-07-13T23:58:00.178Z,15.60
